createdAt,value
2023-03-21T00:00:48.036Z,6.25
2023-03-21T00:02:11.621Z,7.53
2023-03-21T00:03:34.797Z,7.00
2023-03-21T00:05:05.919Z,8.25
2023-03-21T00:06:33.452Z,6.97
2023-03-21T00:07:55.869Z,7.22
2023-03-21T00:09:20.964Z,7.78
2023-03-21T00:10:44.052Z,7.20
2023-03-21T00:12:09.799Z,7.03
2023-03-21T00:13:33.284Z,8.07
2023-03-21T00:15:06.124Z,7.28
2023-03-21T00:16:31.291Z,7.55
2023-03-21T00:17:58.333Z,6.82
2023-03-21T00:19:21.957Z,7.25
2023-03-21T00:20:48.165Z,6.85
2023-03-21T00:22:11.558Z,7.28
2023-03-21T00:23:36.308Z,6.78
2023-03-21T00:25:01.033Z,6.97
2023-03-21T00:26:23.639Z,7.30
2023-03-21T00:28:05.244Z,7.60
2023-03-21T00:29:30.873Z,7.60
2023-03-21T00:30:58.133Z,7.68
2023-03-21T00:32:22.434Z,7.15
2023-03-21T00:33:45.105Z,7.85
2023-03-21T00:35:43.938Z,7.93
2023-03-21T00:36:52.708Z,7.20
2023-03-21T00:38:15.501Z,7.63
2023-03-21T00:39:39.166Z,7.88
2023-03-21T00:41:18.778Z,8.13
2023-03-21T00:42:46.942Z,8.02
2023-03-21T00:44:11.555Z,7.68
2023-03-21T00:45:34.145Z,7.05
2023-03-21T00:47:06.913Z,7.35
2023-03-21T00:48:30.833Z,7.85
2023-03-21T00:49:54.260Z,7.95
2023-03-21T00:51:25.952Z,8.13
2023-03-21T00:52:48.374Z,8.43
2023-03-21T00:54:13.120Z,8.18
2023-03-21T00:55:38.739Z,8.52
2023-03-21T00:57:03.670Z,8.80
2023-03-21T00:58:27.240Z,8.35
2023-03-21T00:59:50.630Z,8.18
2023-03-21T01:01:13.468Z,7.97
2023-03-21T01:02:37.925Z,8.73
2023-03-21T01:04:05.350Z,8.27
2023-03-21T01:05:45.479Z,8.60
2023-03-21T01:07:08.907Z,8.50
2023-03-21T01:08:44.651Z,8.18
2023-03-21T01:10:14.500Z,7.65
2023-03-21T01:11:37.936Z,8.90
2023-03-21T01:13:01.756Z,8.77
2023-03-21T01:14:25.606Z,7.57
2023-03-21T01:15:49.705Z,7.47
2023-03-21T01:17:13.125Z,7.97
2023-03-21T01:18:36.848Z,8.48
2023-03-21T01:20:00.328Z,7.53
2023-03-21T01:21:24.261Z,8.57
2023-03-21T01:22:46.642Z,8.50
2023-03-21T01:24:12.521Z,7.85
2023-03-21T01:25:35.979Z,7.90
2023-03-21T01:26:59.399Z,8.18
2023-03-21T01:28:25.828Z,8.45
2023-03-21T01:29:50.014Z,9.43
2023-03-21T01:31:15.190Z,9.43
2023-03-21T01:32:37.772Z,9.23
2023-03-21T01:34:01.108Z,9.57
2023-03-21T01:35:23.927Z,9.98
2023-03-21T01:36:47.374Z,10.15
2023-03-21T01:38:09.975Z,10.38
2023-03-21T01:39:35.268Z,10.55
2023-03-21T01:41:00.794Z,11.98
2023-03-21T01:42:23.358Z,10.40
2023-03-21T01:43:48.600Z,11.18
2023-03-21T01:45:44.343Z,11.18
2023-03-21T01:47:12.473Z,10.18
2023-03-21T01:48:36.556Z,11.50
2023-03-21T01:50:02.197Z,12.50
2023-03-21T01:51:26.353Z,11.85
2023-03-21T01:52:50.778Z,13.75
2023-03-21T01:54:17.408Z,13.40
2023-03-21T01:55:40.973Z,12.88
2023-03-21T01:57:05.994Z,12.35
2023-03-21T01:58:30.043Z,12.45
2023-03-21T01:59:55.326Z,11.95
2023-03-21T02:01:18.634Z,14.07
2023-03-21T02:02:52.235Z,13.43
2023-03-21T02:04:16.080Z,13.13
2023-03-21T02:05:41.499Z,13.40
2023-03-21T02:07:09.018Z,13.43
2023-03-21T02:08:39.603Z,14.38
2023-03-21T02:10:08.046Z,13.40
2023-03-21T02:11:30.600Z,14.73
2023-03-21T02:12:55.010Z,13.60
2023-03-21T02:14:28.913Z,13.88
2023-03-21T02:15:59.320Z,13.70
2023-03-21T02:17:29.563Z,14.18
2023-03-21T02:19:00.332Z,14.63
2023-03-21T02:21:06.333Z,14.30
2023-03-21T02:23:11.088Z,13.82
2023-03-21T02:24:59.631Z,13.70
2023-03-21T02:26:44.961Z,14.57
2023-03-21T02:28:14.783Z,14.00
2023-03-21T02:29:49.961Z,14.15
2023-03-21T02:31:37.656Z,13.95
2023-03-21T02:33:31.694Z,14.30
2023-03-21T02:35:08.377Z,13.27
2023-03-21T02:37:01.070Z,14.07
2023-03-21T02:38:30.297Z,14.05
2023-03-21T02:39:59.080Z,15.05
2023-03-21T02:41:29.843Z,14.70
2023-03-21T02:43:01.862Z,14.35
2023-03-21T02:44:27.168Z,14.48
2023-03-21T02:45:52.709Z,13.85
2023-03-21T02:47:18.575Z,14.68
2023-03-21T02:48:50.878Z,14.43
2023-03-21T02:50:17.353Z,13.93
2023-03-21T02:51:40.583Z,14.32
2023-03-21T02:53:04.363Z,13.98
2023-03-21T02:54:45.338Z,13.50
2023-03-21T02:56:11.436Z,14.25
2023-03-21T02:57:42.594Z,14.65
2023-03-21T02:59:07.504Z,14.85
2023-03-21T03:00:32.584Z,13.90
2023-03-21T03:01:56.321Z,15.13
2023-03-21T03:03:33.031Z,14.15
2023-03-21T03:04:56.909Z,14.60
2023-03-21T03:06:22.889Z,13.02
2023-03-21T03:07:56.549Z,15.15
2023-03-21T03:09:27.250Z,13.85
2023-03-21T03:11:02.844Z,14.77
2023-03-21T03:12:32.079Z,14.73
2023-03-21T03:14:22.719Z,14.13
2023-03-21T03:15:58.297Z,13.90
2023-03-21T03:17:28.572Z,15.10
2023-03-21T03:18:53.901Z,14.07
2023-03-21T03:20:24.788Z,13.82
2023-03-21T03:21:51.925Z,14.77
2023-03-21T03:23:22.290Z,15.85
2023-03-21T03:24:51.696Z,14.93
2023-03-21T03:26:17.926Z,15.30
2023-03-21T03:27:44.255Z,13.65
2023-03-21T03:29:09.983Z,14.98
2023-03-21T03:30:42.217Z,13.98
2023-03-21T03:32:12.133Z,15.20
2023-03-21T03:33:40.300Z,15.45
2023-03-21T03:35:05.122Z,14.43
2023-03-21T03:36:33.069Z,15.80
2023-03-21T03:37:58.371Z,15.52
2023-03-21T03:39:21.804Z,14.82
2023-03-21T03:40:48.838Z,15.23
2023-03-21T03:42:27.554Z,15.77
2023-03-21T03:43:54.938Z,14.48
2023-03-21T03:45:18.563Z,15.68
2023-03-21T03:46:44.214Z,14.90
2023-03-21T03:48:12.668Z,14.68
2023-03-21T03:49:39.488Z,15.57
2023-03-21T03:51:07.586Z,15.07
2023-03-21T03:52:32.738Z,14.48
2023-03-21T03:53:59.108Z,15.32
2023-03-21T03:55:23.130Z,15.05
2023-03-21T03:56:46.838Z,14.45
2023-03-21T03:58:21.727Z,15.43
2023-03-21T03:59:48.152Z,15.18
2023-03-21T04:01:11.062Z,14.50
2023-03-21T04:02:34.509Z,14.35
2023-03-21T04:04:11.935Z,14.63
2023-03-21T04:05:36.568Z,13.77
2023-03-21T04:07:00.570Z,14.57
2023-03-21T04:08:25.098Z,14.07
2023-03-21T04:09:47.746Z,14.73
2023-03-21T04:11:11.728Z,15.35
2023-03-21T04:12:35.208Z,14.57
2023-03-21T04:13:59.954Z,14.25
2023-03-21T04:15:22.625Z,13.32
2023-03-21T04:16:46.466Z,15.02
2023-03-21T04:18:08.879Z,14.35
2023-03-21T04:19:32.465Z,15.18
2023-03-21T04:20:54.849Z,13.23
2023-03-21T04:22:18.194Z,14.80
2023-03-21T04:23:41.686Z,13.70
2023-03-21T04:25:05.317Z,13.80
2023-03-21T04:26:32.869Z,14.00
2023-03-21T04:27:56.412Z,14.75
2023-03-21T04:29:21.292Z,15.27
2023-03-21T04:31:00.816Z,13.88
2023-03-21T04:32:26.891Z,14.63
2023-03-21T04:33:50.006Z,13.90
2023-03-21T04:35:13.584Z,14.75
2023-03-21T04:36:43.692Z,13.82
2023-03-21T04:38:07.137Z,15.02
2023-03-21T04:39:29.604Z,14.68
2023-03-21T04:40:53.050Z,13.98
2023-03-21T04:42:21.653Z,14.05
2023-03-21T04:43:44.525Z,13.82
2023-03-21T04:45:10.796Z,15.10
2023-03-21T04:46:33.866Z,14.10
2023-03-21T04:47:59.043Z,14.95
2023-03-21T04:49:22.496Z,14.13
2023-03-21T04:50:46.413Z,14.55
2023-03-21T04:52:08.834Z,14.45
2023-03-21T04:53:32.797Z,15.32
2023-03-21T04:54:55.265Z,14.50
2023-03-21T04:56:18.761Z,14.73
2023-03-21T04:57:42.159Z,14.07
2023-03-21T04:59:08.823Z,15.52
2023-03-21T05:00:37.446Z,13.50
2023-03-21T05:02:01.612Z,13.73
2023-03-21T05:03:25.021Z,14.27
2023-03-21T05:04:48.449Z,15.07
2023-03-21T05:06:11.078Z,14.82
2023-03-21T05:07:34.798Z,15.27
2023-03-21T05:09:00.107Z,14.35
2023-03-21T05:10:24.159Z,14.45
2023-03-21T05:11:46.616Z,14.38
2023-03-21T05:13:09.981Z,20.95
2023-03-21T05:14:32.379Z,15.32
2023-03-21T05:15:57.169Z,14.65
2023-03-21T05:17:23.320Z,15.65
2023-03-21T05:18:45.782Z,13.32
2023-03-21T05:20:11.610Z,14.10
2023-03-21T05:21:41.316Z,14.40
2023-03-21T05:23:04.674Z,14.65
2023-03-21T05:24:27.135Z,14.82
2023-03-21T05:25:50.876Z,15.13
2023-03-21T05:27:14.282Z,14.85
2023-03-21T05:28:36.803Z,15.05
2023-03-21T05:30:00.252Z,14.23
2023-03-21T05:31:25.027Z,15.23
2023-03-21T05:32:48.836Z,14.38
2023-03-21T05:34:13.594Z,16.33
2023-03-21T05:35:36.226Z,15.57
2023-03-21T05:36:59.818Z,15.35
2023-03-21T05:38:24.142Z,14.75
2023-03-21T05:39:46.555Z,15.20
2023-03-21T05:41:09.986Z,15.10
2023-03-21T05:42:33.393Z,13.93
2023-03-21T05:43:56.785Z,15.30
2023-03-21T05:45:20.563Z,15.35
2023-03-21T05:46:45.398Z,15.30
2023-03-21T05:48:09.199Z,15.25
2023-03-21T05:49:33.413Z,14.60
2023-03-21T05:50:56.791Z,16.05
2023-03-21T05:52:20.482Z,16.27
2023-03-21T05:53:42.890Z,15.15
2023-03-21T05:55:06.952Z,14.52
2023-03-21T05:56:30.331Z,15.32
2023-03-21T05:57:53.696Z,15.00
2023-03-21T05:59:17.560Z,14.27
2023-03-21T06:00:39.972Z,15.02
2023-03-21T06:02:04.712Z,13.88
2023-03-21T06:03:28.142Z,15.88
2023-03-21T06:04:51.587Z,15.73
2023-03-21T06:06:13.995Z,15.38
2023-03-21T06:07:37.482Z,16.65
2023-03-21T06:08:59.876Z,15.98
2023-03-21T06:10:23.303Z,15.50
2023-03-21T06:11:49.464Z,15.82
2023-03-21T06:13:12.830Z,15.98
2023-03-21T06:14:36.253Z,15.70
2023-03-21T06:15:59.704Z,15.30
2023-03-21T06:17:24.727Z,15.75
2023-03-21T06:18:48.134Z,15.73
2023-03-21T06:20:12.907Z,15.13
2023-03-21T06:21:36.447Z,14.82
2023-03-21T06:23:00.622Z,15.23
2023-03-21T06:24:24.003Z,16.52
2023-03-21T06:25:47.369Z,14.88
2023-03-21T06:27:10.889Z,15.82
2023-03-21T06:28:33.390Z,15.40
2023-03-21T06:29:57.979Z,16.27
2023-03-21T06:31:22.488Z,16.65
2023-03-21T06:32:47.329Z,15.68
2023-03-21T06:34:11.690Z,15.52
2023-03-21T06:35:35.267Z,17.13
2023-03-21T06:36:58.777Z,15.82
2023-03-21T06:38:21.282Z,16.35
2023-03-21T06:39:45.685Z,15.95
2023-03-21T06:41:08.676Z,16.85
2023-03-21T06:42:32.578Z,16.23
2023-03-21T06:43:56.008Z,16.45
2023-03-21T06:45:20.637Z,16.20
2023-03-21T06:46:44.161Z,17.08
2023-03-21T06:48:09.561Z,18.83
2023-03-21T06:49:33.356Z,17.13
2023-03-21T06:50:57.288Z,16.67
2023-03-21T06:52:20.651Z,17.05
2023-03-21T06:53:44.569Z,17.50
2023-03-21T06:55:09.162Z,16.30
2023-03-21T06:56:33.225Z,17.42
2023-03-21T06:57:57.266Z,17.48
2023-03-21T06:59:20.908Z,17.40
2023-03-21T07:00:43.383Z,17.13
2023-03-21T07:02:06.845Z,16.55
2023-03-21T07:03:32.870Z,17.08
2023-03-21T07:04:56.778Z,16.63
2023-03-21T07:06:20.197Z,17.85
2023-03-21T07:07:43.655Z,16.65
2023-03-21T07:09:07.548Z,17.08
2023-03-21T07:10:31.021Z,16.67
2023-03-21T07:11:54.419Z,17.05
2023-03-21T07:13:17.954Z,18.17
2023-03-21T07:14:41.305Z,17.48
2023-03-21T07:16:04.930Z,18.40
2023-03-21T07:17:28.612Z,18.25
2023-03-21T07:18:53.613Z,17.60
2023-03-21T07:20:16.415Z,18.38
2023-03-21T07:21:39.802Z,18.35
2023-03-21T07:23:03.211Z,18.33
2023-03-21T07:24:27.439Z,18.67
2023-03-21T07:25:51.658Z,19.33
2023-03-21T07:27:15.327Z,17.88
2023-03-21T07:28:38.706Z,17.27
2023-03-21T07:30:02.921Z,17.50
2023-03-21T07:31:26.870Z,18.08
2023-03-21T07:32:50.267Z,18.02
2023-03-21T07:34:15.921Z,17.83
2023-03-21T07:35:39.702Z,18.50
2023-03-21T07:37:03.462Z,16.98
2023-03-21T07:38:27.628Z,17.98
2023-03-21T07:39:51.921Z,17.80
2023-03-21T07:42:45.275Z,17.15
2023-03-21T07:44:08.703Z,17.80
2023-03-21T07:45:32.150Z,17.60
2023-03-21T07:46:56.285Z,16.35
2023-03-21T07:48:19.763Z,15.07
2023-03-21T07:49:44.520Z,17.30
2023-03-21T07:51:08.308Z,17.00
2023-03-21T07:52:31.968Z,17.80
2023-03-21T07:53:55.385Z,17.55
2023-03-21T07:55:19.049Z,16.73
2023-03-21T07:56:42.618Z,17.42
2023-03-21T07:58:06.694Z,17.77
2023-03-21T07:59:30.080Z,17.25
2023-03-21T08:00:53.963Z,16.33
2023-03-21T08:02:18.098Z,16.77
2023-03-21T08:03:43.436Z,16.55
2023-03-21T08:05:10.584Z,16.20
2023-03-21T08:06:34.103Z,16.77
2023-03-21T08:07:57.858Z,16.65
2023-03-21T08:09:21.392Z,16.50
2023-03-21T08:10:45.001Z,16.17
2023-03-21T08:12:09.264Z,15.88
2023-03-21T08:13:32.795Z,15.68
2023-03-21T08:14:56.243Z,16.92
2023-03-21T08:16:20.719Z,16.40
2023-03-21T08:17:45.551Z,14.10
2023-03-21T08:19:08.941Z,15.00
2023-03-21T08:20:33.755Z,16.33
2023-03-21T08:21:59.763Z,15.82
2023-03-21T08:23:23.639Z,15.10
2023-03-21T08:24:47.024Z,14.55
2023-03-21T08:26:10.580Z,16.63
2023-03-21T08:27:33.112Z,14.82
2023-03-21T08:28:56.495Z,15.88
2023-03-21T08:30:21.322Z,15.80
2023-03-21T08:31:44.910Z,15.98
2023-03-21T08:33:08.360Z,16.02
2023-03-21T08:34:31.726Z,14.02
2023-03-21T08:35:56.510Z,14.55
2023-03-21T08:37:25.570Z,15.40
2023-03-21T08:38:48.989Z,15.30
2023-03-21T08:40:14.376Z,14.00
2023-03-21T08:41:44.022Z,15.20
2023-03-21T08:43:08.271Z,13.85
2023-03-21T08:44:31.661Z,14.55
2023-03-21T08:45:55.363Z,13.77
2023-03-21T08:47:18.777Z,13.93
2023-03-21T08:48:42.964Z,14.00
2023-03-21T08:50:07.966Z,14.50
2023-03-21T08:51:33.588Z,14.57
2023-03-21T08:52:57.027Z,15.05
2023-03-21T08:54:22.735Z,14.90
2023-03-21T08:55:46.289Z,14.65
2023-03-21T08:57:11.000Z,14.45
2023-03-21T08:58:34.378Z,14.13
2023-03-21T08:59:57.789Z,14.68
2023-03-21T09:01:22.479Z,14.77
2023-03-21T09:02:46.783Z,14.40
2023-03-21T09:04:11.012Z,14.15
2023-03-21T09:05:34.619Z,14.18
2023-03-21T09:07:01.437Z,14.20
2023-03-21T09:08:24.855Z,13.85
2023-03-21T09:09:58.139Z,14.10
2023-03-21T09:11:28.901Z,14.00
2023-03-21T09:12:53.464Z,14.63
2023-03-21T09:14:18.327Z,13.38
2023-03-21T09:15:42.918Z,12.73
2023-03-21T09:17:06.710Z,14.10
2023-03-21T09:18:45.232Z,14.07
2023-03-21T09:20:11.556Z,13.53
2023-03-21T09:21:35.538Z,13.57
2023-03-21T09:23:01.735Z,14.68
2023-03-21T09:24:26.361Z,14.95
2023-03-21T09:25:49.857Z,13.18
2023-03-21T09:27:14.019Z,12.85
2023-03-21T09:28:39.157Z,12.68
2023-03-21T09:30:02.613Z,13.00
2023-03-21T09:31:29.316Z,13.50
2023-03-21T09:32:55.194Z,13.20
2023-03-21T09:34:18.566Z,13.15
2023-03-21T09:35:42.926Z,12.50
2023-03-21T09:37:09.999Z,13.15
2023-03-21T09:38:37.560Z,13.82
2023-03-21T09:40:02.486Z,13.70
2023-03-21T09:41:36.182Z,12.60
2023-03-21T09:43:06.898Z,14.20
2023-03-21T09:44:47.333Z,14.10
2023-03-21T09:46:16.134Z,13.02
2023-03-21T09:47:45.436Z,14.20
2023-03-21T09:49:13.106Z,13.82
2023-03-21T09:50:38.176Z,13.80
2023-03-21T09:52:05.518Z,14.27
2023-03-21T09:53:32.608Z,13.60
2023-03-21T09:54:57.761Z,12.75
2023-03-21T09:56:21.288Z,14.15
2023-03-21T09:57:46.289Z,13.43
2023-03-21T09:59:11.506Z,13.48
2023-03-21T10:00:39.730Z,14.57
2023-03-21T10:02:04.249Z,13.85
2023-03-21T10:03:35.142Z,14.10
2023-03-21T10:04:58.611Z,13.57
2023-03-21T10:06:28.821Z,13.07
2023-03-21T10:07:56.018Z,14.23
2023-03-21T10:09:23.459Z,12.65
2023-03-21T10:10:50.214Z,11.90
2023-03-21T10:12:30.486Z,13.88
2023-03-21T10:13:55.847Z,13.18
2023-03-21T10:15:21.632Z,12.95
2023-03-21T10:16:47.295Z,13.48
2023-03-21T10:18:14.948Z,13.05
2023-03-21T10:19:38.323Z,12.55
2023-03-21T10:21:03.788Z,12.40
2023-03-21T10:22:27.140Z,13.15
2023-03-21T10:23:52.182Z,13.13
2023-03-21T10:25:17.871Z,12.80
2023-03-21T10:26:43.342Z,13.20
2023-03-21T10:28:08.940Z,12.98
2023-03-21T10:29:37.024Z,12.27
2023-03-21T10:31:02.292Z,13.43
2023-03-21T10:32:25.739Z,13.50
2023-03-21T10:33:50.905Z,12.70
2023-03-21T10:35:15.356Z,13.05
2023-03-21T10:36:38.830Z,12.68
2023-03-21T10:38:02.394Z,11.93
2023-03-21T10:39:29.361Z,11.43
2023-03-21T10:40:53.099Z,11.90
2023-03-21T10:42:22.224Z,11.70
2023-03-21T10:43:46.755Z,11.70
2023-03-21T10:45:17.575Z,13.52
2023-03-21T10:46:41.089Z,11.77
2023-03-21T10:48:09.324Z,11.70
2023-03-21T10:49:40.638Z,12.63
2023-03-21T10:51:18.582Z,12.25
2023-03-21T10:52:46.598Z,11.88
2023-03-21T10:54:13.090Z,11.57
2023-03-21T10:55:37.978Z,11.32
2023-03-21T10:57:05.855Z,12.73
2023-03-21T10:58:30.643Z,12.32
2023-03-21T10:59:57.596Z,11.65
2023-03-21T11:01:31.240Z,11.50
2023-03-21T11:02:54.359Z,11.13
2023-03-21T11:04:19.792Z,11.52
2023-03-21T11:05:43.811Z,11.57
2023-03-21T11:07:08.246Z,11.98
2023-03-21T11:08:30.756Z,11.55
2023-03-21T11:09:56.470Z,10.75
2023-03-21T11:11:26.259Z,11.30
2023-03-21T11:12:49.570Z,11.45
2023-03-21T11:14:27.607Z,10.93
2023-03-21T11:15:54.780Z,10.45
2023-03-21T11:17:23.779Z,10.93
2023-03-21T11:18:51.997Z,11.57
2023-03-21T11:20:20.021Z,10.27
2023-03-21T11:21:43.430Z,10.75
2023-03-21T11:23:08.426Z,10.38
2023-03-21T11:24:32.398Z,11.43
2023-03-21T11:25:58.215Z,10.23
2023-03-21T11:27:21.689Z,10.20
2023-03-21T11:28:45.879Z,9.93
2023-03-21T11:30:24.194Z,9.95
2023-03-21T11:31:47.642Z,10.35
2023-03-21T11:33:12.180Z,11.05
2023-03-21T11:34:44.009Z,11.10
2023-03-21T11:36:25.876Z,10.20
2023-03-21T11:37:53.276Z,9.70
2023-03-21T11:39:31.987Z,10.02
2023-03-21T11:40:59.249Z,10.45
2023-03-21T11:42:33.757Z,10.27
2023-03-21T11:43:57.253Z,9.18
2023-03-21T11:45:24.597Z,9.63
2023-03-21T11:46:48.023Z,9.88
2023-03-21T11:48:15.598Z,10.15
2023-03-21T11:49:39.350Z,11.02
2023-03-21T11:51:05.476Z,10.25
2023-03-21T11:52:35.783Z,11.90
2023-03-21T11:54:07.271Z,9.48
2023-03-21T11:55:37.314Z,9.13
2023-03-21T11:57:03.903Z,8.85
2023-03-21T11:58:38.248Z,9.52
2023-03-21T12:00:10.895Z,9.75
2023-03-21T12:01:43.024Z,9.23
2023-03-21T12:03:51.668Z,9.23
2023-03-21T12:05:22.444Z,9.73
2023-03-21T12:06:49.624Z,9.85
2023-03-21T12:08:23.272Z,9.98
2023-03-21T12:09:49.316Z,10.60
2023-03-21T12:11:18.678Z,9.52
2023-03-21T12:12:47.310Z,9.32
2023-03-21T12:14:17.101Z,9.48
2023-03-21T12:15:43.556Z,10.00
2023-03-21T12:17:15.770Z,10.35
2023-03-21T12:18:52.396Z,9.55
2023-03-21T12:20:45.747Z,9.30
2023-03-21T12:22:14.013Z,9.63
2023-03-21T12:23:50.488Z,9.43
2023-03-21T12:25:17.485Z,10.32
2023-03-21T12:26:47.096Z,9.15
2023-03-21T12:28:30.109Z,9.05
2023-03-21T12:30:19.156Z,10.32
2023-03-21T12:31:54.757Z,9.18
2023-03-21T12:33:31.404Z,8.90
2023-03-21T12:35:10.640Z,9.55
2023-03-21T12:36:57.604Z,9.38
2023-03-21T12:38:26.145Z,8.88
2023-03-21T12:39:50.730Z,9.20
2023-03-21T12:41:25.426Z,8.77
2023-03-21T12:43:01.116Z,8.18
2023-03-21T12:44:29.043Z,9.07
2023-03-21T12:45:54.056Z,10.25
2023-03-21T12:47:21.208Z,8.70
2023-03-21T12:48:48.560Z,8.50
2023-03-21T12:50:18.933Z,8.07
2023-03-21T12:51:45.015Z,8.50
2023-03-21T12:53:29.947Z,9.38
2023-03-21T12:54:57.378Z,8.57
2023-03-21T12:56:26.693Z,8.85
2023-03-21T12:57:57.505Z,8.32
2023-03-21T12:59:30.465Z,8.07
2023-03-21T13:00:56.921Z,9.85
2023-03-21T13:02:23.538Z,9.95
2023-03-21T13:03:52.247Z,8.23
2023-03-21T13:05:19.966Z,8.93
2023-03-21T13:06:43.272Z,8.98
2023-03-21T13:08:11.273Z,8.80
2023-03-21T13:09:38.356Z,7.53
2023-03-21T13:11:02.918Z,8.73
2023-03-21T13:12:47.080Z,7.30
2023-03-21T13:14:14.952Z,8.57
2023-03-21T13:16:00.733Z,7.40
2023-03-21T13:17:30.433Z,7.45
2023-03-21T13:19:03.673Z,7.03
2023-03-21T13:20:31.462Z,6.72
2023-03-21T13:22:01.116Z,7.68
2023-03-21T13:23:24.344Z,7.93
2023-03-21T13:24:51.604Z,6.88
2023-03-21T13:26:15.031Z,7.30
2023-03-21T13:27:39.363Z,7.40
2023-03-21T13:29:02.787Z,7.78
2023-03-21T13:30:29.021Z,7.07
2023-03-21T13:31:56.676Z,7.43
2023-03-21T13:33:25.835Z,7.75
2023-03-21T13:34:56.390Z,7.22
2023-03-21T13:36:25.877Z,7.85
2023-03-21T13:37:53.830Z,7.85
2023-03-21T13:39:21.005Z,7.43
2023-03-21T13:40:48.672Z,6.78
2023-03-21T13:42:23.862Z,6.72
2023-03-21T13:43:53.740Z,6.78
2023-03-21T13:45:26.549Z,7.63
2023-03-21T13:46:56.283Z,6.85
2023-03-21T13:48:29.628Z,6.95
2023-03-21T13:50:26.265Z,6.80
2023-03-21T13:51:53.346Z,6.47
2023-03-21T13:53:25.662Z,6.75
2023-03-21T13:54:52.641Z,6.47
2023-03-21T13:56:24.444Z,6.50
2023-03-21T13:57:49.011Z,7.50
2023-03-21T13:59:38.366Z,6.40
2023-03-21T14:01:18.990Z,7.57
2023-03-21T14:02:55.573Z,6.70
2023-03-21T14:04:24.027Z,6.10
2023-03-21T14:05:53.668Z,6.40
2023-03-21T14:07:21.705Z,7.22
2023-03-21T14:08:47.437Z,6.85
2023-03-21T14:10:20.101Z,6.93
2023-03-21T14:11:47.004Z,7.10
2023-03-21T14:13:16.285Z,7.30
2023-03-21T14:14:41.196Z,5.68
2023-03-21T14:16:12.627Z,6.72
2023-03-21T14:17:36.716Z,7.15
2023-03-21T14:19:05.002Z,6.45
2023-03-21T14:20:29.990Z,6.88
2023-03-21T14:21:55.635Z,6.78
2023-03-21T14:23:19.018Z,6.57
2023-03-21T14:24:47.484Z,7.05
2023-03-21T14:26:12.551Z,6.88
2023-03-21T14:27:37.739Z,6.45
2023-03-21T14:29:02.760Z,5.78
2023-03-21T14:30:28.947Z,5.80
2023-03-21T14:31:52.359Z,5.53
2023-03-21T14:33:28.334Z,6.00
2023-03-21T14:34:52.154Z,7.22
2023-03-21T14:36:17.518Z,6.20
2023-03-21T14:37:44.962Z,7.25
2023-03-21T14:39:15.911Z,7.80
2023-03-21T14:40:38.447Z,5.68
2023-03-21T14:42:06.485Z,6.60
2023-03-21T14:43:31.264Z,6.90
2023-03-21T14:44:56.578Z,6.15
2023-03-21T14:46:22.807Z,8.23
2023-03-21T14:47:56.777Z,6.32
2023-03-21T14:49:23.125Z,6.00
2023-03-21T14:50:49.562Z,5.97
2023-03-21T14:52:14.665Z,5.20
2023-03-21T14:53:43.050Z,5.78
2023-03-21T14:55:15.488Z,9.00
2023-03-21T14:56:40.724Z,6.88
2023-03-21T14:58:06.834Z,6.10
2023-03-21T14:59:35.014Z,6.93
2023-03-21T15:01:03.532Z,5.85
2023-03-21T15:02:29.528Z,5.70
2023-03-21T15:03:53.418Z,6.10
2023-03-21T15:05:19.879Z,6.20
2023-03-21T15:06:55.273Z,6.60
2023-03-21T15:08:20.047Z,6.13
2023-03-21T15:09:55.219Z,6.00
2023-03-21T15:11:20.188Z,5.75
2023-03-21T15:12:52.543Z,6.20
2023-03-21T15:14:16.589Z,5.55
2023-03-21T15:15:40.528Z,5.40
2023-03-21T15:17:04.618Z,5.18
2023-03-21T15:18:29.609Z,5.43
2023-03-21T15:19:53.037Z,4.95
2023-03-21T15:21:20.341Z,5.18
2023-03-21T15:22:47.234Z,5.05
2023-03-21T15:24:15.842Z,5.03
2023-03-21T15:25:41.551Z,4.40
2023-03-21T15:27:06.817Z,5.43
2023-03-21T15:28:30.635Z,6.45
2023-03-21T15:29:55.448Z,5.22
2023-03-21T15:31:21.415Z,4.90
2023-03-21T15:32:47.325Z,5.93
2023-03-21T15:34:21.249Z,4.88
2023-03-21T15:35:46.894Z,5.55
2023-03-21T15:37:17.151Z,5.90
2023-03-21T15:38:42.670Z,5.45
2023-03-21T15:40:15.408Z,5.22
2023-03-21T15:41:40.318Z,5.53
2023-03-21T15:43:08.353Z,5.38
2023-03-21T15:44:32.140Z,5.88
2023-03-21T15:45:56.854Z,5.63
2023-03-21T15:47:39.897Z,5.00
2023-03-21T15:49:10.719Z,5.30
2023-03-21T15:50:36.864Z,6.25
2023-03-21T15:52:05.716Z,5.32
2023-03-21T15:53:29.165Z,6.03
2023-03-21T15:54:56.680Z,5.05
2023-03-21T15:56:21.585Z,5.90
2023-03-21T15:57:47.886Z,8.18
2023-03-21T15:59:17.857Z,4.95
2023-03-21T16:00:43.779Z,5.45
2023-03-21T16:02:12.690Z,6.40
2023-03-21T16:03:41.030Z,5.25
2023-03-21T16:05:18.972Z,5.40
2023-03-21T16:06:54.033Z,6.05
2023-03-21T16:08:22.168Z,5.80
2023-03-21T16:09:47.261Z,5.97
2023-03-21T16:11:17.511Z,8.35
2023-03-21T16:12:41.007Z,6.63
2023-03-21T16:14:05.717Z,5.35
2023-03-21T16:15:29.376Z,5.68
2023-03-21T16:16:52.957Z,6.63
2023-03-21T16:18:17.340Z,7.05
2023-03-21T16:19:41.873Z,6.70
2023-03-21T16:21:07.396Z,6.65
2023-03-21T16:22:34.760Z,6.07
2023-03-21T16:23:59.096Z,6.85
2023-03-21T16:25:22.032Z,6.13
2023-03-21T16:26:47.784Z,6.82
2023-03-21T16:28:14.643Z,7.72
2023-03-21T16:29:39.848Z,7.70
2023-03-21T16:31:03.303Z,7.10
2023-03-21T16:32:27.113Z,7.35
2023-03-21T16:33:51.332Z,9.10
2023-03-21T16:35:14.795Z,8.48
2023-03-21T16:36:40.196Z,8.35
2023-03-21T16:38:05.887Z,17.38
2023-03-21T16:39:29.240Z,8.77
2023-03-21T16:40:52.667Z,7.85
2023-03-21T16:42:16.034Z,9.00
2023-03-21T16:43:42.990Z,8.45
2023-03-21T16:45:08.863Z,9.02
2023-03-21T16:46:32.326Z,8.98
2023-03-21T16:47:56.098Z,9.18
2023-03-21T16:49:21.403Z,9.65
2023-03-21T16:50:48.189Z,10.20
2023-03-21T16:52:12.245Z,9.57
2023-03-21T16:53:35.814Z,10.05
2023-03-21T16:54:59.180Z,9.90
2023-03-21T16:56:25.412Z,9.32
2023-03-21T16:57:49.328Z,10.18
2023-03-21T16:59:14.113Z,11.95
2023-03-21T17:00:41.213Z,10.25
2023-03-21T17:02:10.370Z,12.25
2023-03-21T17:03:34.370Z,12.63
2023-03-21T17:04:57.785Z,13.10
2023-03-21T17:06:25.153Z,11.65
2023-03-21T17:07:48.679Z,11.10
2023-03-21T17:09:12.388Z,10.13
2023-03-21T17:10:36.218Z,12.95
2023-03-21T17:11:59.699Z,12.02
2023-03-21T17:13:23.059Z,10.60
2023-03-21T17:14:46.930Z,18.45
2023-03-21T17:16:13.900Z,11.80
2023-03-21T17:17:37.676Z,10.95
2023-03-21T17:19:01.716Z,11.45
2023-03-21T17:20:27.243Z,12.43
2023-03-21T17:21:50.608Z,11.25
2023-03-21T17:23:14.032Z,15.30
2023-03-21T17:24:37.628Z,12.02
2023-03-21T17:26:02.213Z,13.27
2023-03-21T17:27:25.818Z,11.68
2023-03-21T17:28:51.308Z,11.73
2023-03-21T17:30:23.648Z,15.13
2023-03-21T17:31:50.927Z,11.45
2023-03-21T17:33:15.308Z,12.60
2023-03-21T17:34:38.702Z,16.92
2023-03-21T17:36:02.120Z,11.60
2023-03-21T17:37:26.229Z,13.43
2023-03-21T17:38:49.723Z,14.43
2023-03-21T17:40:13.448Z,12.93
2023-03-21T17:41:37.281Z,12.57
2023-03-21T17:43:01.813Z,11.45
2023-03-21T17:44:25.727Z,16.15
2023-03-21T17:45:49.309Z,13.50
2023-03-21T17:47:14.670Z,11.65
2023-03-21T17:48:38.216Z,12.48
2023-03-21T17:50:01.646Z,10.65
2023-03-21T17:51:30.041Z,11.00
2023-03-21T17:52:56.429Z,11.50
2023-03-21T17:54:19.861Z,13.77
2023-03-21T17:55:43.236Z,11.73
2023-03-21T17:57:06.694Z,11.68
2023-03-21T17:58:30.258Z,12.10
2023-03-21T17:59:53.634Z,11.40
2023-03-21T18:01:17.438Z,11.77
2023-03-21T18:02:42.720Z,11.48
2023-03-21T18:04:07.107Z,12.02
2023-03-21T18:05:30.634Z,10.93
2023-03-21T18:06:57.393Z,11.55
2023-03-21T18:08:20.782Z,10.98
2023-03-21T18:09:44.195Z,10.77
2023-03-21T18:11:08.084Z,11.30
2023-03-21T18:12:31.543Z,11.63
2023-03-21T18:14:06.767Z,11.13
2023-03-21T18:15:44.238Z,10.52
2023-03-21T18:17:08.195Z,11.00
2023-03-21T18:18:34.007Z,11.63
2023-03-21T18:19:57.574Z,11.80
2023-03-21T18:21:26.228Z,11.77
2023-03-21T18:22:52.522Z,12.55
2023-03-21T18:24:16.343Z,11.88
2023-03-21T18:25:39.012Z,11.40
2023-03-21T18:27:02.727Z,11.75
2023-03-21T18:28:26.275Z,11.82
2023-03-21T18:30:28.783Z,12.07
2023-03-21T18:31:33.268Z,11.68
2023-03-21T18:32:56.661Z,11.15
2023-03-21T18:34:21.394Z,12.57
2023-03-21T18:35:46.334Z,11.60
2023-03-21T18:37:13.474Z,11.55
2023-03-21T18:38:37.328Z,10.98
2023-03-21T18:40:01.514Z,10.75
2023-03-21T18:41:24.982Z,10.68
2023-03-21T18:43:41.409Z,11.52
2023-03-21T18:44:37.274Z,11.13
2023-03-21T18:46:01.173Z,11.23
2023-03-21T18:47:24.572Z,11.93
2023-03-21T18:48:49.192Z,11.65
2023-03-21T18:50:15.371Z,11.15
2023-03-21T18:51:39.820Z,10.75
2023-03-21T18:53:04.473Z,12.15